Flight Track Log - Related Links

Times and Time Zones

All times are in EDT time to prevent confusion due to time zone crossing. See the N12734 flight status page for this flight to view local times or setup timezone preferences in your user account.

Time Position Orientation Groundspeed Altitude Reporting Facility
EDT Latitude Longitude Course Direction KTS MPH feet Rate Location/Type
Sun 05:17:21 PM 43.4500 -70.5500 216° Southwest 107 123 4,600  Level KA90
Sun 05:17:51 PM 43.4333 -70.5667 216° Southwest 108 124 4,600  Level KA90
Sun 05:18:51 PM 43.4000 -70.5833 200° South 106 122 4,600  Level KA90
Sun 05:19:57 PM 43.3833 -70.6167 235° Southwest 101 116 4,600  Level KA90
Sun 05:20:57 PM 43.3500 -70.6333 200° South 100 115 4,600  Level KA90
Sun 05:21:57 PM 43.3333 -70.6500 216° Southwest 98 113 4,600  Level KA90
Sun 05:22:57 PM 43.3167 -70.6667 216° Southwest 98 113 4,600  Level KA90
Sun 05:23:57 PM 43.2833 -70.6833 200° South 99 114 4,600  Level KA90
Sun 05:24:58 PM 43.2667 -70.7000 216° Southwest 99 114 4,600  Level KA90
Sun 05:25:58 PM 43.2333 -70.7167 200° South 98 113 4,600  Level KA90
Sun 05:26:58 PM 43.2167 -70.7333 216° Southwest 98 113 4,600  Level KA90
Sun 05:27:52 PM 43.1833 -70.7500 200° South 98 113 4,600  Level KA90
Sun 05:28:58 PM 43.1667 -70.7833 236° Southwest 96 110 4,600  Level KA90
Sun 05:29:58 PM 43.1500 -70.8000 216° Southwest 99 114 4,600  Level KA90
Sun 05:30:59 PM 43.1167 -70.8167 200° South 100 115 4,600  Level KA90
Sun 05:31:58 PM 43.1000 -70.8333 216° Southwest 102 117 4,600  Level KA90
Sun 05:32:58 PM 43.0667 -70.8500 200° South 103 119 4,600  Level KA90
Sun 05:33:58 PM 43.0500 -70.8667 216° Southwest 102 117 4,600  Level KA90
Sun 05:34:59 PM 43.0167 -70.8833 200° South 101 116 4,600  Level KA90
Sun 05:35:59 PM 43.0000 -70.9000 216° Southwest 99 114 4,600 -150 Level KA90
Sun 05:36:59 PM 42.9667 -70.9333 216° Southwest 98 113 4,300 -300 Descending KA90
Sun 05:38:00 PM 42.9427 -70.9477 204° Southwest  Level FlightAware Approximate
Sun 05:45:00 PM 42.7886 -71.0427 194° South  Level FlightAware Approximate
Sun 05:46:00 PM 42.7641 -71.0526 216° Southwest  Level FlightAware Approximate
Sun 05:47:00 PM 42.7434 -71.0733 216° Southwest  Level FlightAware Approximate
Sun 05:48:00 PM 42.7258 -71.0983 236° Southwest  Level FlightAware Approximate
Sun 05:49:00 PM 42.7167 -71.1167 236° Southwest  Level FlightAware Approximate
Sun 05:50:00 PM 42.7172 -71.1234 236° Southwest  Level Estimated
Sun 05:51:00 PM 42.7167 -71.1167 236° Southwest  Level FlightAware Approximate
Sun 05:52:00 PM 42.7172 -71.1234 236° Southwest  Level Estimated
Sun 05:53:00 PM 42.7167 -71.1167 236° Southwest  Level FlightAware Approximate
Sun 05:54:00 PM 42.7172 -71.1234 236° Southwest  Level Estimated
Sun 05:55:00 PM 42.7167 -71.1167 236° Southwest  Level FlightAware Approximate
Sun 05:56:00 PM 42.7172 -71.1234 236° Southwest  Level Estimated
Sun 05:57:00 PM 42.7167 -71.1167 236° Southwest  Level FlightAware Approximate
Sun 05:58:00 PM 42.7172 -71.1234 236° Southwest  Level Estimated
Sun 05:59:00 PM 42.7167 -71.1167 236° Southwest  Level FlightAware Approximate
Sun 06:00:00 PM 42.7172 -71.1234 236° Southwest  Level Estimated
Sun 06:01:00 PM 42.7167 -71.1167 236° Southwest  Level FlightAware Approximate
Sun 06:02:00 PM 42.7172 -71.1234 236° Southwest  Level Estimated
Sun 06:03:00 PM 42.7167 -71.1167 236° Southwest  Level FlightAware Approximate
Sun 06:04:00 PM 42.7172 -71.1234 236° Southwest  Level Estimated

Login

Don't have an account? Register now (free) for customized features, flight alerts, and more!